createdAt,value
2023-02-11T00:00:15.410Z,1022.01
2023-02-11T00:00:34.721Z,1022.01
2023-02-11T00:01:01.060Z,1022.01
2023-02-11T00:01:33.079Z,1022.01
2023-02-11T00:02:04.980Z,1022.01
2023-02-11T00:02:33.897Z,1021.91
2023-02-11T00:02:52.932Z,1021.91
2023-02-11T00:03:25.182Z,1021.91
2023-02-11T00:03:57.127Z,1022.01
2023-02-11T00:04:28.970Z,1022.01
2023-02-11T00:05:02.921Z,1021.91
2023-02-11T00:05:33.785Z,1021.91
2023-02-11T00:06:04.960Z,1021.84
2023-02-11T00:06:33.777Z,1021.91
2023-02-11T00:06:52.980Z,1021.91
2023-02-11T00:07:25.150Z,1021.91
2023-02-11T00:07:57.152Z,1022.01
2023-02-11T00:08:29.018Z,1022.01
2023-02-11T00:09:01.065Z,1021.91
2023-02-11T00:09:33.036Z,1021.91
2023-02-11T00:10:05.303Z,1021.74
2023-02-11T00:10:36.960Z,1021.74
2023-02-11T00:11:09.726Z,1021.91
2023-02-11T00:11:34.720Z,1022.01
2023-02-11T00:11:57.745Z,1022.01
2023-02-11T00:12:29.038Z,1022.01
2023-02-11T00:13:01.016Z,1022.01
2023-02-11T00:13:33.005Z,1022.01
2023-02-11T00:14:04.958Z,1022.11
2023-02-11T00:14:36.938Z,1022.11
2023-02-11T00:15:10.697Z,1022.21
2023-02-11T00:15:34.735Z,1022.21
2023-02-11T00:15:57.235Z,1022.21
2023-02-11T00:16:29.031Z,1022.21
2023-02-11T00:17:01.068Z,1022.21
2023-02-11T00:17:33.019Z,1022.21
2023-02-11T00:18:04.938Z,1021.91
2023-02-11T00:18:36.983Z,1021.91
2023-02-11T00:19:09.485Z,1022.01
2023-02-11T00:19:34.731Z,1022.11
2023-02-11T00:19:57.367Z,1022.11
2023-02-11T00:20:29.396Z,1022.11
2023-02-11T00:21:01.034Z,1021.91
2023-02-11T00:21:33.821Z,1021.91
2023-02-11T00:22:04.957Z,1022.01
2023-02-11T00:22:36.953Z,1022.01
2023-02-11T00:23:09.818Z,1022.21
2023-02-11T00:23:34.678Z,1022.32
2023-02-11T00:23:56.978Z,1022.32
2023-02-11T00:24:28.988Z,1022.32
2023-02-11T00:25:03.042Z,1022.21
2023-02-11T00:25:33.083Z,1022.21
2023-02-11T00:26:05.002Z,1022.21
2023-02-11T00:26:36.961Z,1022.21
2023-02-11T00:27:09.432Z,1022.21
2023-02-11T00:27:34.770Z,1022.21
2023-02-11T00:27:57.795Z,1022.21
2023-02-11T00:28:29.066Z,1022.21
2023-02-11T00:29:01.018Z,1022.21
2023-02-11T00:29:33.029Z,1022.21
2023-02-11T00:30:07.093Z,1022.21
2023-02-11T00:30:37.121Z,1022.21
2023-02-11T00:31:10.956Z,1022.01
2023-02-11T00:31:34.870Z,1022.11
2023-02-11T00:31:57.100Z,1022.11
2023-02-11T00:32:29.027Z,1022.11
2023-02-11T00:33:02.684Z,1022.21
2023-02-11T00:33:33.200Z,1022.21
2023-02-11T00:34:05.034Z,1022.11
2023-02-11T00:34:37.004Z,1022.11
2023-02-11T00:35:10.304Z,1022.01
2023-02-11T00:35:34.689Z,1022.01
2023-02-11T00:35:57.221Z,1022.01
2023-02-11T00:36:29.014Z,1022.01
2023-02-11T00:37:01.135Z,1022.11
2023-02-11T00:37:34.192Z,1022.11
2023-02-11T00:38:04.967Z,1022.11
2023-02-11T00:38:36.932Z,1022.11
2023-02-11T00:39:08.975Z,1022.11
2023-02-11T00:39:34.675Z,1022.01
2023-02-11T00:39:57.082Z,1022.01
2023-02-11T00:40:29.365Z,1022.01
2023-02-11T00:41:01.043Z,1022.01
2023-02-11T00:41:33.329Z,1022.01
2023-02-11T00:42:05.006Z,1022.11
2023-02-11T00:42:37.016Z,1022.11
2023-02-11T00:43:09.469Z,1022.01
2023-02-11T00:43:35.308Z,1021.91
2023-02-11T00:43:57.786Z,1021.91
2023-02-11T00:44:29.006Z,1021.91
2023-02-11T00:45:03.290Z,1022.11
2023-02-11T00:45:33.049Z,1022.11
2023-02-11T00:46:06.640Z,1022.01
2023-02-11T00:46:37.046Z,1022.01
2023-02-11T00:47:10.175Z,1022.01
2023-02-11T00:47:34.702Z,1021.91
2023-02-11T00:47:56.970Z,1021.91
2023-02-11T00:48:29.065Z,1021.91
2023-02-11T00:49:01.083Z,1021.91
2023-02-11T00:49:33.056Z,1021.91
2023-02-11T00:50:05.519Z,1022.01
2023-02-11T00:50:36.985Z,1022.01
2023-02-11T00:51:09.496Z,1021.91
2023-02-11T00:51:34.692Z,1021.91
2023-02-11T00:51:57.268Z,1021.91
2023-02-11T00:52:28.985Z,1021.91
2023-02-11T00:53:00.999Z,1022.01
2023-02-11T00:53:33.056Z,1022.01
2023-02-11T00:54:04.962Z,1021.91
2023-02-11T00:54:36.998Z,1021.91
2023-02-11T00:55:09.616Z,1021.91
2023-02-11T00:55:34.686Z,1022.01
2023-02-11T00:55:57.981Z,1022.01
2023-02-11T00:56:28.977Z,1022.01
2023-02-11T00:57:01.060Z,1021.91
2023-02-11T00:57:33.082Z,1021.91
2023-02-11T00:58:05.006Z,1021.84
2023-02-11T00:58:36.972Z,1021.84
2023-02-11T00:59:10.147Z,1021.84
2023-02-11T00:59:34.678Z,1021.74
2023-02-11T00:59:57.012Z,1021.74
2023-02-11T01:00:29.584Z,1021.74
2023-02-11T01:01:01.086Z,1021.91
2023-02-11T01:01:33.177Z,1021.91
2023-02-11T01:02:04.947Z,1021.74
2023-02-11T01:02:37.067Z,1021.74
2023-02-11T01:03:09.043Z,1021.91
2023-02-11T01:03:34.752Z,1021.91
2023-02-11T01:03:57.006Z,1021.91
2023-02-11T01:04:29.028Z,1021.91
2023-02-11T01:05:03.127Z,1021.84
2023-02-11T01:05:34.225Z,1021.84
2023-02-11T01:06:05.023Z,1021.84
2023-02-11T01:06:37.003Z,1021.84
2023-02-11T01:07:09.048Z,1021.91
2023-02-11T01:07:34.954Z,1021.91
2023-02-11T01:07:57.112Z,1021.91
2023-02-11T01:08:29.014Z,1021.91
2023-02-11T01:09:01.113Z,1021.91
2023-02-11T01:09:33.056Z,1021.91
2023-02-11T01:10:05.307Z,1021.84
2023-02-11T01:10:36.955Z,1021.84
2023-02-11T01:11:09.065Z,1021.84
2023-02-11T01:11:34.718Z,1021.74
2023-02-11T01:11:57.983Z,1021.74
2023-02-11T01:12:29.014Z,1021.74
2023-02-11T01:13:01.070Z,1021.84
2023-02-11T01:13:33.501Z,1021.84
2023-02-11T01:14:04.996Z,1022.01
2023-02-11T01:14:36.990Z,1022.01
2023-02-11T01:15:11.401Z,1021.64
2023-02-11T01:15:34.797Z,1021.74
2023-02-11T01:15:57.363Z,1021.74
2023-02-11T01:16:29.027Z,1021.74
2023-02-11T01:17:01.069Z,1021.84
2023-02-11T01:17:33.005Z,1021.84
2023-02-11T01:18:04.984Z,1021.84
2023-02-11T01:18:36.984Z,1021.84
2023-02-11T01:19:10.260Z,1021.84
2023-02-11T01:19:34.714Z,1021.91
2023-02-11T01:19:56.988Z,1021.91
2023-02-11T01:20:29.380Z,1021.91
2023-02-11T01:21:01.101Z,1021.64
2023-02-11T01:21:33.978Z,1021.64
2023-02-11T01:22:04.958Z,1021.91
2023-02-11T01:22:37.058Z,1021.91
2023-02-11T01:23:09.802Z,1021.91
2023-02-11T01:23:35.386Z,1021.91
2023-02-11T01:23:57.021Z,1021.91
2023-02-11T01:24:29.059Z,1021.91
2023-02-11T01:25:03.040Z,1021.74
2023-02-11T01:25:33.054Z,1021.74
2023-02-11T01:26:04.985Z,1021.54
2023-02-11T01:26:36.969Z,1021.54
2023-02-11T01:27:09.025Z,1021.84
2023-02-11T01:27:34.692Z,1021.74
2023-02-11T01:27:57.867Z,1021.74
2023-02-11T01:28:29.065Z,1021.74
2023-02-11T01:29:01.144Z,1021.74
2023-02-11T01:29:33.083Z,1021.74
2023-02-11T01:30:07.083Z,1021.74
2023-02-11T01:30:36.996Z,1021.74
2023-02-11T01:31:10.330Z,1021.74
2023-02-11T01:31:35.315Z,1021.74
2023-02-11T01:31:57.104Z,1021.74
2023-02-11T01:32:29.022Z,1021.74
2023-02-11T01:33:02.691Z,1021.74
2023-02-11T01:33:33.378Z,1021.74
2023-02-11T01:34:04.977Z,1021.64
2023-02-11T01:34:37.001Z,1021.64
2023-02-11T01:35:09.641Z,1021.84
2023-02-11T01:35:34.673Z,1021.84
2023-02-11T01:35:57.257Z,1021.84
2023-02-11T01:36:29.046Z,1021.84
2023-02-11T01:37:01.026Z,1021.74
2023-02-11T01:37:33.887Z,1021.74
2023-02-11T01:38:04.997Z,1021.54
2023-02-11T01:38:37.052Z,1021.54
2023-02-11T01:39:09.020Z,1021.74
2023-02-11T01:39:34.714Z,1021.74
2023-02-11T01:39:56.996Z,1021.74
2023-02-11T01:40:29.899Z,1021.74
2023-02-11T01:41:01.269Z,1021.64
2023-02-11T01:41:33.138Z,1021.64
2023-02-11T01:42:05.018Z,1021.74
2023-02-11T01:42:37.071Z,1021.74
2023-02-11T01:43:10.934Z,1021.54
2023-02-11T01:43:34.706Z,1021.64
2023-02-11T01:43:59.073Z,1021.64
2023-02-11T01:44:29.231Z,1021.64
2023-02-11T01:45:02.475Z,1021.54
2023-02-11T01:45:33.292Z,1021.54
2023-02-11T01:46:05.293Z,1021.54
2023-02-11T01:46:37.310Z,1021.54
2023-02-11T01:47:10.576Z,1021.43
2023-02-11T01:47:35.468Z,1021.33
2023-02-11T01:47:57.198Z,1021.33
2023-02-11T01:48:29.178Z,1021.33
2023-02-11T01:49:01.176Z,1021.43
2023-02-11T01:49:33.263Z,1021.43
2023-02-11T01:50:06.020Z,1021.43
2023-02-11T01:50:37.040Z,1021.43
2023-02-11T01:51:09.954Z,1021.33
2023-02-11T01:51:35.002Z,1021.33
2023-02-11T01:51:57.018Z,1021.33
2023-02-11T01:52:29.086Z,1021.33
2023-02-11T01:53:01.116Z,1021.33
2023-02-11T01:53:33.826Z,1021.33
2023-02-11T01:54:05.270Z,1021.43
2023-02-11T01:54:37.053Z,1021.43
2023-02-11T01:55:09.799Z,1021.13
2023-02-11T01:55:35.318Z,1021.23
2023-02-11T01:55:57.302Z,1021.23
2023-02-11T01:56:29.088Z,1021.23
2023-02-11T01:57:01.165Z,1021.23
2023-02-11T01:57:33.039Z,1021.23
2023-02-11T01:58:05.031Z,1021.13
2023-02-11T01:58:37.059Z,1021.13
2023-02-11T01:59:09.998Z,1021.23
2023-02-11T01:59:34.761Z,1021.13
2023-02-11T01:59:57.797Z,1021.13
2023-02-11T02:00:29.792Z,1021.13
2023-02-11T02:01:01.143Z,1021.13
2023-02-11T02:01:33.142Z,1021.13
2023-02-11T02:02:05.069Z,1021.13
2023-02-11T02:02:37.031Z,1021.13
2023-02-11T02:03:10.462Z,1020.93
2023-02-11T02:03:34.761Z,1021.13
2023-02-11T02:03:57.125Z,1021.13
2023-02-11T02:04:29.069Z,1021.13
2023-02-11T02:05:03.143Z,1021.23
2023-02-11T02:05:33.067Z,1021.23
2023-02-11T02:06:05.033Z,1021.13
2023-02-11T02:06:37.012Z,1021.13
2023-02-11T02:07:09.079Z,1021.03
2023-02-11T02:07:34.739Z,1020.83
2023-02-11T02:07:57.098Z,1020.83
2023-02-11T02:08:29.135Z,1020.83
2023-02-11T02:09:01.160Z,1021.03
2023-02-11T02:09:33.939Z,1021.03
2023-02-11T02:10:05.427Z,1021.03
2023-02-11T02:10:37.059Z,1021.03
2023-02-11T02:11:09.101Z,1021.13
2023-02-11T02:11:34.713Z,1020.83
2023-02-11T02:11:57.043Z,1020.83
2023-02-11T02:12:29.052Z,1020.83
2023-02-11T02:13:01.075Z,1021.03
2023-02-11T02:13:33.056Z,1021.03
2023-02-11T02:14:05.015Z,1020.93
2023-02-11T02:14:37.030Z,1020.93
2023-02-11T02:15:10.865Z,1020.83
2023-02-11T02:15:34.758Z,1021.03
2023-02-11T02:15:59.005Z,1021.03
2023-02-11T02:16:29.187Z,1021.03
2023-02-11T02:17:01.176Z,1021.03
2023-02-11T02:17:33.076Z,1021.03
2023-02-11T02:18:05.075Z,1021.03
2023-02-11T02:18:37.080Z,1021.03
2023-02-11T02:19:10.536Z,1020.93
2023-02-11T02:19:35.016Z,1020.72
2023-02-11T02:19:57.065Z,1020.72
2023-02-11T02:20:29.454Z,1020.72
2023-02-11T02:21:01.121Z,1020.93
2023-02-11T02:21:33.077Z,1020.93
2023-02-11T02:22:05.018Z,1021.03
2023-02-11T02:22:37.030Z,1021.03
2023-02-11T02:23:09.080Z,1020.93
2023-02-11T02:23:34.892Z,1020.83
2023-02-11T02:23:57.039Z,1020.83
2023-02-11T02:24:29.067Z,1020.83
2023-02-11T02:25:03.157Z,1020.83
2023-02-11T02:25:35.449Z,1020.83
2023-02-11T02:26:05.014Z,1020.72
2023-02-11T02:26:37.090Z,1020.72
2023-02-11T02:27:09.080Z,1020.83
2023-02-11T02:27:34.726Z,1020.72
2023-02-11T02:27:57.125Z,1020.72
2023-02-11T02:28:29.142Z,1020.72
2023-02-11T02:29:01.106Z,1020.93
2023-02-11T02:29:33.055Z,1020.93
2023-02-11T02:30:07.056Z,1020.62
2023-02-11T02:30:37.106Z,1020.62
2023-02-11T02:31:09.297Z,1020.62
2023-02-11T02:31:34.731Z,1020.72
2023-02-11T02:31:58.534Z,1020.72
2023-02-11T02:32:29.042Z,1020.72
2023-02-11T02:33:16.781Z,1020.72
2023-02-11T02:33:33.054Z,1020.72
2023-02-11T02:34:05.061Z,1020.62
2023-02-11T02:34:37.006Z,1020.62
2023-02-11T02:35:11.553Z,1020.62
2023-02-11T02:35:34.720Z,1020.42
2023-02-11T02:35:57.534Z,1020.42
2023-02-11T02:36:29.024Z,1020.42
2023-02-11T02:37:01.008Z,1020.83
2023-02-11T02:37:32.950Z,1020.83
2023-02-11T02:38:05.009Z,1020.62
2023-02-11T02:38:37.019Z,1020.62
2023-02-11T02:39:09.044Z,1020.72
2023-02-11T02:39:35.202Z,1020.52
2023-02-11T02:39:57.662Z,1020.52
2023-02-11T02:40:29.351Z,1020.52
2023-02-11T02:41:01.039Z,1020.72
2023-02-11T02:41:34.068Z,1020.72
2023-02-11T02:42:05.014Z,1020.32
2023-02-11T02:42:37.027Z,1020.32
2023-02-11T02:43:10.070Z,1020.52
2023-02-11T02:43:35.364Z,1020.62
2023-02-11T02:43:57.057Z,1020.62
2023-02-11T02:44:28.986Z,1020.62
2023-02-11T02:45:03.182Z,1020.62
2023-02-11T02:45:33.057Z,1020.62
2023-02-11T02:46:06.656Z,1020.72
2023-02-11T02:46:37.063Z,1020.72
2023-02-11T02:47:09.033Z,1020.72
2023-02-11T02:47:34.707Z,1020.83
2023-02-11T02:47:58.837Z,1020.83
2023-02-11T02:48:29.037Z,1020.83
2023-02-11T02:49:01.150Z,1020.72
2023-02-11T02:49:33.029Z,1020.72
2023-02-11T02:50:05.357Z,1020.62
2023-02-11T02:50:37.034Z,1020.62
2023-02-11T02:51:10.361Z,1020.83
2023-02-11T02:51:35.182Z,1021.03
2023-02-11T02:51:57.501Z,1021.03
2023-02-11T02:52:29.034Z,1021.03
2023-02-11T02:53:01.078Z,1020.93
2023-02-11T02:53:33.006Z,1020.93
2023-02-11T02:54:05.023Z,1020.83
2023-02-11T02:54:36.985Z,1020.83
2023-02-11T02:55:09.840Z,1020.83
2023-02-11T02:55:35.278Z,1020.83
2023-02-11T02:55:58.072Z,1020.83
2023-02-11T02:56:29.043Z,1020.83
2023-02-11T02:57:01.089Z,1021.03
2023-02-11T02:57:33.036Z,1021.03
2023-02-11T02:58:05.000Z,1020.83
2023-02-11T02:58:37.058Z,1020.83
2023-02-11T02:59:10.493Z,1020.93
2023-02-11T02:59:34.725Z,1020.62
2023-02-11T02:59:57.040Z,1020.62
2023-02-11T03:00:29.647Z,1020.62
2023-02-11T03:01:01.159Z,1020.93
2023-02-11T03:01:33.028Z,1020.93
2023-02-11T03:02:05.003Z,1020.93
2023-02-11T03:02:37.019Z,1020.93
2023-02-11T03:03:09.052Z,1020.93
2023-02-11T03:03:34.741Z,1020.93
2023-02-11T03:03:57.104Z,1020.93
2023-02-11T03:04:29.096Z,1020.93
2023-02-11T03:05:02.836Z,1020.93
2023-02-11T03:05:33.753Z,1020.93
2023-02-11T03:06:05.044Z,1021.03
2023-02-11T03:06:37.170Z,1021.03
2023-02-11T03:07:09.899Z,1021.03
2023-02-11T03:07:34.890Z,1021.13
2023-02-11T03:07:57.018Z,1021.13
2023-02-11T03:08:29.021Z,1021.13
2023-02-11T03:09:01.080Z,1021.23
2023-02-11T03:09:33.023Z,1021.23
2023-02-11T03:10:05.397Z,1021.23
2023-02-11T03:10:37.021Z,1021.23
2023-02-11T03:11:09.069Z,1021.13
2023-02-11T03:11:34.716Z,1021.23
2023-02-11T03:11:57.982Z,1021.23
2023-02-11T03:12:29.068Z,1021.23
2023-02-11T03:13:01.048Z,1021.03
2023-02-11T03:13:33.078Z,1021.03
2023-02-11T03:14:05.014Z,1021.13
2023-02-11T03:14:37.017Z,1021.13
2023-02-11T03:15:11.006Z,1021.13
2023-02-11T03:15:34.793Z,1021.13
2023-02-11T03:15:57.370Z,1021.13
2023-02-11T03:16:29.072Z,1021.13
2023-02-11T03:17:01.099Z,1020.93
2023-02-11T03:17:33.536Z,1020.93
2023-02-11T03:18:04.995Z,1021.33
2023-02-11T03:18:37.056Z,1021.33
2023-02-11T03:19:09.268Z,1021.03
2023-02-11T03:19:34.719Z,1021.33
2023-02-11T03:19:57.065Z,1021.33
2023-02-11T03:20:29.343Z,1021.33
2023-02-11T03:21:01.763Z,1020.93
2023-02-11T03:21:33.874Z,1020.93
2023-02-11T03:22:05.058Z,1021.03
2023-02-11T03:22:37.045Z,1021.03
2023-02-11T03:23:09.094Z,1021.13
2023-02-11T03:23:35.200Z,1021.03
2023-02-11T03:23:57.072Z,1021.03
2023-02-11T03:24:29.007Z,1021.03
2023-02-11T03:25:02.944Z,1020.93
2023-02-11T03:25:33.001Z,1020.93
2023-02-11T03:26:05.011Z,1020.83
2023-02-11T03:26:36.998Z,1020.83
2023-02-11T03:27:09.036Z,1020.93
2023-02-11T03:27:35.080Z,1021.03
2023-02-11T03:27:58.186Z,1021.03
2023-02-11T03:28:29.146Z,1021.03
2023-02-11T03:29:01.124Z,1021.03
2023-02-11T03:29:33.721Z,1021.03
2023-02-11T03:30:07.146Z,1021.03
2023-02-11T03:30:37.097Z,1021.03
2023-02-11T03:31:10.585Z,1020.62
2023-02-11T03:31:34.915Z,1020.83
2023-02-11T03:31:57.156Z,1020.83
2023-02-11T03:32:29.085Z,1020.83
2023-02-11T03:33:02.611Z,1020.83
2023-02-11T03:33:33.906Z,1020.83
2023-02-11T03:34:05.029Z,1020.83
2023-02-11T03:34:37.007Z,1020.83
2023-02-11T03:35:09.726Z,1020.83
2023-02-11T03:35:34.673Z,1020.93
2023-02-11T03:35:57.340Z,1020.93
2023-02-11T03:36:29.012Z,1020.93
2023-02-11T03:37:01.119Z,1020.83
2023-02-11T03:37:34.987Z,1020.83
2023-02-11T03:38:05.052Z,1020.83
2023-02-11T03:38:37.038Z,1020.83
2023-02-11T03:39:09.062Z,1020.83
2023-02-11T03:39:34.671Z,1020.83
2023-02-11T03:39:57.029Z,1020.83
2023-02-11T03:40:29.365Z,1020.83
2023-02-11T03:41:01.063Z,1020.83
2023-02-11T03:41:33.028Z,1020.83
2023-02-11T03:42:05.023Z,1020.62
2023-02-11T03:42:37.063Z,1020.62
2023-02-11T03:43:09.034Z,1020.52
2023-02-11T03:43:34.715Z,1020.72
2023-02-11T03:43:57.856Z,1020.72
2023-02-11T03:44:29.033Z,1020.72
2023-02-11T03:45:03.425Z,1020.62
2023-02-11T03:45:33.134Z,1020.62
2023-02-11T03:46:06.765Z,1020.62
2023-02-11T03:46:37.071Z,1020.62
2023-02-11T03:47:10.194Z,1020.83
2023-02-11T03:47:34.724Z,1020.72
2023-02-11T03:47:57.099Z,1020.72
2023-02-11T03:48:29.025Z,1020.72
2023-02-11T03:49:01.088Z,1020.72
2023-02-11T03:49:33.071Z,1020.72
2023-02-11T03:50:05.321Z,1020.62
2023-02-11T03:50:37.032Z,1020.62
2023-02-11T03:51:09.005Z,1020.72
2023-02-11T03:51:34.773Z,1020.62
2023-02-11T03:51:57.089Z,1020.62
2023-02-11T03:52:29.050Z,1020.62
2023-02-11T03:53:01.140Z,1020.62
2023-02-11T03:53:33.048Z,1020.62
2023-02-11T03:54:05.093Z,1020.32
2023-02-11T03:54:37.069Z,1020.32
2023-02-11T03:55:09.762Z,1020.32
2023-02-11T03:55:34.712Z,1020.32
2023-02-11T03:55:58.186Z,1020.32
2023-02-11T03:56:29.030Z,1020.32
2023-02-11T03:57:01.083Z,1020.42
2023-02-11T03:57:33.045Z,1020.42
2023-02-11T03:58:05.067Z,1020.32
2023-02-11T03:58:37.028Z,1020.32
2023-02-11T03:59:10.536Z,1020.32
2023-02-11T03:59:34.723Z,1020.22
2023-02-11T03:59:57.058Z,1020.22
2023-02-11T04:00:29.682Z,1020.22
2023-02-11T04:01:01.177Z,1020.42
2023-02-11T04:01:33.189Z,1020.42
2023-02-11T04:02:05.063Z,1020.42
2023-02-11T04:02:37.044Z,1020.42
2023-02-11T04:03:09.118Z,1020.52
2023-02-11T04:03:35.331Z,1020.32
2023-02-11T04:03:57.090Z,1020.32
2023-02-11T04:04:29.064Z,1020.32
2023-02-11T04:05:02.919Z,1020.42
2023-02-11T04:05:34.790Z,1020.42
2023-02-11T04:06:05.063Z,1020.42
2023-02-11T04:06:37.010Z,1020.42
2023-02-11T04:07:09.045Z,1020.32
2023-02-11T04:07:34.741Z,1020.22
2023-02-11T04:07:57.102Z,1020.22
2023-02-11T04:08:29.061Z,1020.22
2023-02-11T04:09:01.174Z,1020.11
2023-02-11T04:09:33.414Z,1020.11
2023-02-11T04:10:05.355Z,1020.32
2023-02-11T04:10:37.115Z,1020.32
2023-02-11T04:11:09.093Z,1020.32
2023-02-11T04:11:34.820Z,1020.11
2023-02-11T04:11:58.073Z,1020.11
2023-02-11T04:12:29.061Z,1020.11
2023-02-11T04:13:01.047Z,1020.42
2023-02-11T04:13:33.102Z,1020.42
2023-02-11T04:14:05.052Z,1020.11
2023-02-11T04:14:37.038Z,1020.11
2023-02-11T04:15:11.154Z,1020.32
2023-02-11T04:15:34.737Z,1020.11
2023-02-11T04:15:57.466Z,1020.11
2023-02-11T04:16:29.108Z,1020.11
2023-02-11T04:17:01.087Z,1020.22
2023-02-11T04:17:33.125Z,1020.22
2023-02-11T04:18:05.701Z,1020.22
2023-02-11T04:18:37.112Z,1020.22
2023-02-11T04:19:10.036Z,1020.11
2023-02-11T04:19:34.741Z,1020.01
2023-02-11T04:19:57.383Z,1020.01
2023-02-11T04:20:29.307Z,1020.01
2023-02-11T04:21:01.087Z,1020.22
2023-02-11T04:21:33.913Z,1020.22
2023-02-11T04:22:05.037Z,1020.11
2023-02-11T04:22:37.048Z,1020.11
2023-02-11T04:23:10.148Z,1019.91
2023-02-11T04:23:34.705Z,1020.22
2023-02-11T04:23:57.132Z,1020.22
2023-02-11T04:24:29.079Z,1020.22
2023-02-11T04:25:03.054Z,1020.22
2023-02-11T04:25:33.071Z,1020.22
2023-02-11T04:26:05.108Z,1020.11
2023-02-11T04:26:37.067Z,1020.11
2023-02-11T04:27:09.087Z,1020.11
2023-02-11T04:27:34.688Z,1020.01
2023-02-11T04:27:58.034Z,1020.01
2023-02-11T04:28:29.100Z,1020.01
2023-02-11T04:29:01.134Z,1020.11
2023-02-11T04:29:33.030Z,1020.11
2023-02-11T04:30:07.158Z,1020.32
2023-02-11T04:30:37.057Z,1020.32
2023-02-11T04:31:10.542Z,1020.42
2023-02-11T04:31:35.415Z,1019.91
2023-02-11T04:31:57.529Z,1019.91
2023-02-11T04:32:29.064Z,1019.91
2023-02-11T04:33:02.600Z,1020.32
2023-02-11T04:33:33.120Z,1020.32
2023-02-11T04:34:05.096Z,1020.32
2023-02-11T04:34:37.112Z,1020.32
2023-02-11T04:35:09.830Z,1020.22
2023-02-11T04:35:34.730Z,1020.11
2023-02-11T04:35:57.333Z,1020.11
2023-02-11T04:36:29.063Z,1020.11
2023-02-11T04:37:01.081Z,1020.22
2023-02-11T04:37:34.012Z,1020.22
2023-02-11T04:38:05.049Z,1020.22
2023-02-11T04:38:37.171Z,1020.22
2023-02-11T04:39:09.082Z,1020.22
2023-02-11T04:39:34.885Z,1020.42
2023-02-11T04:39:57.164Z,1020.42
2023-02-11T04:40:29.450Z,1020.42
2023-02-11T04:41:01.119Z,1020.22
2023-02-11T04:41:33.086Z,1020.22
2023-02-11T04:42:05.089Z,1020.42
2023-02-11T04:42:37.057Z,1020.42
2023-02-11T04:43:09.089Z,1020.22
2023-02-11T04:43:35.204Z,1020.52
2023-02-11T04:43:57.862Z,1020.52
2023-02-11T04:44:29.099Z,1020.52
2023-02-11T04:45:03.536Z,1020.42
2023-02-11T04:45:33.219Z,1020.42
2023-02-11T04:46:06.815Z,1020.32
2023-02-11T04:46:37.264Z,1020.32
2023-02-11T04:47:10.529Z,1020.32
2023-02-11T04:47:34.722Z,1020.62
2023-02-11T04:47:57.170Z,1020.62
2023-02-11T04:48:29.080Z,1020.62
2023-02-11T04:49:01.067Z,1020.52
2023-02-11T04:49:33.099Z,1020.52
2023-02-11T04:50:05.438Z,1020.42
2023-02-11T04:50:37.092Z,1020.42
2023-02-11T04:51:10.504Z,1020.52
2023-02-11T04:51:34.781Z,1020.42
2023-02-11T04:51:57.306Z,1020.42
2023-02-11T04:52:29.049Z,1020.42
2023-02-11T04:53:01.101Z,1020.52
2023-02-11T04:53:33.107Z,1020.52
2023-02-11T04:54:05.060Z,1020.32
2023-02-11T04:54:37.126Z,1020.32
2023-02-11T04:55:09.840Z,1020.42
2023-02-11T04:55:34.712Z,1020.42
2023-02-11T04:55:58.108Z,1020.42
2023-02-11T04:56:29.122Z,1020.42
2023-02-11T04:57:01.156Z,1020.42
2023-02-11T04:57:33.144Z,1020.42
2023-02-11T04:58:05.101Z,1020.52
2023-02-11T04:58:37.119Z,1020.52
2023-02-11T04:59:10.642Z,1020.42
2023-02-11T04:59:34.756Z,1020.52
2023-02-11T04:59:57.603Z,1020.52
2023-02-11T05:00:29.833Z,1020.52
2023-02-11T05:01:01.141Z,1020.52
2023-02-11T05:01:33.383Z,1020.52
2023-02-11T05:02:04.623Z,1020.32
2023-02-11T05:02:36.607Z,1020.32
2023-02-11T05:03:08.816Z,1020.42
2023-02-11T05:03:34.265Z,1020.32
2023-02-11T05:03:56.598Z,1020.32
2023-02-11T05:04:28.870Z,1020.32
2023-02-11T05:05:00.905Z,1020.42
2023-02-11T05:05:33.574Z,1020.42
2023-02-11T05:06:05.283Z,1020.32
2023-02-11T05:06:37.461Z,1020.32
2023-02-11T05:07:09.309Z,1020.22
2023-02-11T05:07:34.632Z,1020.22
2023-02-11T05:07:57.092Z,1020.22
2023-02-11T05:08:29.091Z,1020.22
2023-02-11T05:09:01.127Z,1020.32
2023-02-11T05:09:33.100Z,1020.32
2023-02-11T05:10:05.379Z,1020.32
2023-02-11T05:10:37.586Z,1020.32
2023-02-11T05:11:09.878Z,1020.32
2023-02-11T05:11:34.770Z,1020.42
2023-02-11T05:11:58.312Z,1020.42
2023-02-11T05:12:29.103Z,1020.42
2023-02-11T05:13:01.128Z,1020.32
2023-02-11T05:13:33.131Z,1020.32
2023-02-11T05:14:05.128Z,1020.32
2023-02-11T05:14:37.598Z,1020.32
2023-02-11T05:15:10.639Z,1020.22
2023-02-11T05:15:34.708Z,1020.42
2023-02-11T05:15:57.341Z,1020.42
2023-02-11T05:16:29.142Z,1020.42
2023-02-11T05:17:01.159Z,1020.32
2023-02-11T05:17:33.102Z,1020.32
2023-02-11T05:18:05.129Z,1020.22
2023-02-11T05:18:37.572Z,1020.22
2023-02-11T05:19:09.307Z,1020.11
2023-02-11T05:19:34.738Z,1020.22
2023-02-11T05:19:57.140Z,1020.22
2023-02-11T05:20:29.509Z,1020.22
2023-02-11T05:21:01.150Z,1020.01
2023-02-11T05:21:34.024Z,1020.01
2023-02-11T05:22:05.146Z,1020.22
2023-02-11T05:22:37.654Z,1020.22
2023-02-11T05:23:09.183Z,1020.11
2023-02-11T05:23:35.297Z,1020.01
2023-02-11T05:23:57.093Z,1020.01
2023-02-11T05:24:29.144Z,1020.01
2023-02-11T05:25:02.967Z,1019.81
2023-02-11T05:25:33.122Z,1019.81
2023-02-11T05:26:05.123Z,1019.81
2023-02-11T05:26:37.557Z,1019.81
2023-02-11T05:27:09.108Z,1020.22
2023-02-11T05:27:34.638Z,1020.22
2023-02-11T05:27:59.271Z,1020.22
2023-02-11T05:28:29.208Z,1020.22
2023-02-11T05:29:01.172Z,1019.91
2023-02-11T05:29:34.108Z,1019.91
2023-02-11T05:30:07.534Z,1019.91
2023-02-11T05:30:37.702Z,1019.91
2023-02-11T05:31:10.009Z,1020.11
2023-02-11T05:31:34.668Z,1020.01
2023-02-11T05:31:57.098Z,1020.01
2023-02-11T05:32:29.152Z,1020.01
2023-02-11T05:33:02.747Z,1019.91
2023-02-11T05:33:33.153Z,1019.91
2023-02-11T05:34:05.082Z,1020.11
2023-02-11T05:34:37.580Z,1020.11
2023-02-11T05:35:09.431Z,1020.11
2023-02-11T05:35:34.846Z,1020.11
2023-02-11T05:35:57.450Z,1020.11
2023-02-11T05:36:31.140Z,1020.11
2023-02-11T05:37:01.188Z,1020.11
2023-02-11T05:37:33.967Z,1020.11
2023-02-11T05:38:05.115Z,1020.11
2023-02-11T05:38:37.628Z,1020.11
2023-02-11T05:39:09.131Z,1020.11
2023-02-11T05:39:34.648Z,1020.01
2023-02-11T05:39:57.106Z,1020.01
2023-02-11T05:40:29.400Z,1020.01
2023-02-11T05:41:01.230Z,1020.22
2023-02-11T05:41:34.008Z,1020.22
2023-02-11T05:42:05.084Z,1019.91
2023-02-11T05:42:37.577Z,1019.91
2023-02-11T05:43:09.896Z,1020.11
2023-02-11T05:43:34.692Z,1019.91
2023-02-11T05:43:58.162Z,1019.91
2023-02-11T05:44:29.100Z,1019.91
2023-02-11T05:45:03.324Z,1020.32
2023-02-11T05:45:33.162Z,1020.32
2023-02-11T05:46:07.217Z,1020.01
2023-02-11T05:46:37.652Z,1020.01
2023-02-11T05:47:10.037Z,1020.11
2023-02-11T05:47:34.650Z,1020.11
2023-02-11T05:47:57.130Z,1020.11
2023-02-11T05:48:29.149Z,1020.11
2023-02-11T05:49:01.142Z,1020.01
2023-02-11T05:49:33.107Z,1020.01
2023-02-11T05:50:05.386Z,1020.11
2023-02-11T05:50:38.057Z,1020.11
2023-02-11T05:51:09.127Z,1020.11
2023-02-11T05:51:34.660Z,1019.81
2023-02-11T05:51:57.161Z,1019.81
2023-02-11T05:52:29.170Z,1019.81
2023-02-11T05:53:01.152Z,1020.22
2023-02-11T05:53:34.929Z,1020.22
2023-02-11T05:54:05.118Z,1020.11
2023-02-11T05:54:37.600Z,1020.11
2023-02-11T05:55:09.404Z,1020.01
2023-02-11T05:55:34.678Z,1019.91
2023-02-11T05:55:57.868Z,1019.91
2023-02-11T05:56:29.228Z,1019.91
2023-02-11T05:57:01.169Z,1020.11
2023-02-11T05:57:33.106Z,1020.11
2023-02-11T05:58:05.097Z,1020.22
2023-02-11T05:58:37.561Z,1020.22
2023-02-11T05:59:09.142Z,1020.22
2023-02-11T05:59:34.679Z,1020.11
2023-02-11T05:59:57.851Z,1020.11
2023-02-11T06:00:29.705Z,1020.11
2023-02-11T06:01:01.200Z,1019.91
2023-02-11T06:01:33.139Z,1019.91
2023-02-11T06:02:05.146Z,1020.01
2023-02-11T06:02:37.641Z,1020.01